logo
Search for airport 
image banner adimage banner adimage banner ad
image banner ad

YMTU - Moonie/Tungamah Station

Located in , Australia

ICAO - , IATA -

Data provided by Airmate  

General information

Coordinates: S27°37'41" E150°29'32"
Elevation is 986 feet MSL.
 
View others Airports in Queensland

Operational data

Special qualification required
Current time UTC:
Current local time:
Weather at : - ( 0 km )
METAR: URWW 232020Z 05003MPS 9999 -TSRA BKN048CB 22/16 Q1005 R23/290055 TEMPO 1000 TSRAGR BKN003 BKN030CB
View NOTAMs / SUP AIP / TFR affecting this airport [VIEW]
Communications frequencies: [VIEW]

Runways:

Airport contact information

Address: Australia

Satellite view of YMTU